Caryville, TN

2:14 AM EST on February 11, 2016 (GMT -0500)
Cove Lake | | Change Station
CLOSE
Current Station
Personal Weather Station
Location: Caryville, TN
Elevation: 1112 ft
Nearby Weather Stations

Elev 1112 ft 36.31 °N, 84.22 °W | Updated 5 seconds ago

Overcast
Overcast
24.8 °F
Feels Like 20 °F
N
3.6
Wind Variable Wind from NNW
Gusts 4.9 mph

Today
High -- | Low -- °F
--% Chance of Precip.
Yesterday
High -- | Low -- °F
Precip. -- in
Pressure 30.23 in
Visibility 10.0 miles
Clouds Overcast 2800 ft
Windchill 20 °F
Dew Point 11 °F
Humidity 55%
Rainfall 0.00 in
Snow Depth Not available.
7:29 AM 6:13 PM
Waxing Crescent, 10% visible
METAR KOQT 110653Z AUTO 26003KT 10SM OVC028 M03/M09 A3017 RMK AO2 SLP237 T10281089
Pressure 30.23 in
Visibility 10.0 miles
Clouds Overcast 2800 ft
Windchill 20 °F
Dew Point 11 °F
Humidity 55%
Rainfall 0.00 in
Snow Depth Not available.
7:29 AM 6:13 PM
Waxing Crescent, 10% visible
METAR KOQT 110653Z AUTO 26003KT 10SM OVC028 M03/M09 A3017 RMK AO2 SLP237 T10281089

10-Day Weather Forecast

Almanac

Astronomy

Feb. 11, 2016 Rise Set
Actual Time
Civil Twilight
Nautical Twilight
Astronomical Twilight
Moon
Length of Visible Light
Length of Day
Tomorrow will be .
, % of the Moon is Illuminated

Today's Extremes

State Highs State Lows

Community

WunderPhotos

Upload Photos

1,892,030 photos uploaded!

WunderBlog® & News

Nearby

Air Quality

  Air Quality AQ Index Pollutant
Not available.

Snow Depth

Station Depth Elevation

Earthquake Activity

City Distance Mag. Time & Date
Minimum magnitude displayed is 2.5.

Coastal Water Temperatures

Place Temperature

Stations

Nearby Weather Stations

Station Location Temp. Windchill Dew Point Humidity Wind Precip. Elev Updated Type
                   

Watches & Warnings

There are currently no watches in effect.